Time;durP1;ratioP1;P1;durP2;ratioP2;P2;SDS_P1;SDS_P2;PMS_P1;PMS_P2;Temp;Humidity;BMP_temperature;BMP_pressure;BME280_temperature;BME280_humidity;BME280_pressure;Samples;Min_cycle;Max_cycle;Signal;HPM_P1;HPM_P2
2021/08/24 00:02:05;;;;;;;6.60;3.30;;;;;;;15.36;77.33;101361.75;4866918;28;1164533;-68
2021/08/24 00:04:31;;;;;;;5.93;3.28;;;;;;;15.37;77.17;101371.53;4901515;28;98389;-64
2021/08/24 00:06:57;;;;;;;5.32;3.05;;;;;;;15.37;77.49;101360.66;4901498;28;126419;-64
2021/08/24 00:09:23;;;;;;;5.63;3.50;;;;;;;15.36;76.69;101361.75;4900176;28;128665;-67
2021/08/24 00:11:49;;;;;;;4.60;2.97;;;;;;;15.35;77.19;101362.03;4900296;28;117633;-67
2021/08/24 00:14:15;;;;;;;5.43;3.00;;;;;;;15.33;76.93;101361.50;4900913;28;118773;-67
2021/08/24 00:16:41;;;;;;;5.43;2.50;;;;;;;15.33;77.11;101358.78;4868829;28;116889;-64
2021/08/24 00:19:11;;;;;;;6.03;2.60;;;;;;;15.30;76.96;101353.91;4903363;28;98514;-64
2021/08/24 00:21:38;;;;;;;5.72;2.70;;;;;;;15.30;77.27;101370.22;4903640;28;106097;-67
2021/08/24 00:24:05;;;;;;;5.93;2.60;;;;;;;15.29;76.90;101363.97;4902521;28;116535;-64
2021/08/24 00:26:31;;;;;;;4.80;2.70;;;;;;;15.30;77.00;101356.63;4902466;28;99103;-67
2021/08/24 00:28:57;;;;;;;5.30;2.35;;;;;;;15.29;77.02;101352.25;4903549;28;98875;-67
2021/08/24 00:31:23;;;;;;;4.45;2.40;;;;;;;15.28;76.90;101364.22;4901270;28;125959;-67
2021/08/24 00:33:49;;;;;;;5.05;2.40;;;;;;;15.27;77.34;101363.41;4903835;28;100971;-64
2021/08/24 00:36:16;;;;;;;7.10;2.72;;;;;;;15.26;76.97;101361.78;4902759;28;99696;-67
2021/08/24 00:38:42;;;;;;;4.93;2.45;;;;;;;15.25;76.95;101359.34;4901250;28;98462;-64
2021/08/24 00:41:09;;;;;;;4.63;2.03;;;;;;;15.26;76.91;101366.41;4918561;28;98221;-67
2021/08/24 00:43:37;;;;;;;6.05;2.28;;;;;;;15.25;77.19;101359.34;4921884;28;97741;-67
2021/08/24 00:46:40;;;;;;;4.65;2.10;;;;;;;15.19;77.01;101364.78;4921100;28;98993;-64
2021/08/24 00:49:18;;;;;;;;;;;;;;;15.13;76.74;101365.91;4919685;28;102244;-67
2021/08/24 00:51:48;;;;;;;3.53;2.10;;;;;;;15.13;76.54;101368.63;4902857;28;97925;-64
2021/08/24 00:54:15;;;;;;;6.00;2.38;;;;;;;15.12;76.76;101379.75;4902874;28;97817;-64
2021/08/24 00:56:43;;;;;;;4.85;2.22;;;;;;;15.10;77.13;101365.66;4883754;28;103528;-67
2021/08/24 00:59:09;;;;;;;5.00;2.63;;;;;;;15.08;77.09;101365.91;4869595;28;114346;-64
2021/08/24 01:01:35;;;;;;;3.88;2.05;;;;;;;15.07;77.20;101368.91;4903013;28;107952;-64
2021/08/24 01:04:01;;;;;;;6.18;2.50;;;;;;;15.05;76.75;101377.34;4901843;28;117239;-64
2021/08/24 01:06:50;;;;;;;6.70;2.55;;;;;;;15.00;77.04;101377.34;4900032;28;110359;-65
2021/08/24 01:10:04;;;;;;;5.38;2.08;;;;;;;14.95;76.96;101374.63;4900415;28;98542;-64
2021/08/24 01:12:59;;;;;;;5.20;2.15;;;;;;;14.91;77.14;101377.09;4919970;28;98215;-64
2021/08/24 01:16:26;;;;;;;6.63;2.30;;;;;;;14.88;76.80;101380.34;4921213;28;97922;-64
2021/08/24 01:19:20;;;;;;;4.68;2.20;;;;;;;14.86;77.01;101371.69;4920492;28;98400;-67
2021/08/24 01:22:11;;;;;;;4.57;1.85;;;;;;;14.87;76.71;101370.56;4917443;28;118632;-64
2021/08/24 01:25:01;;;;;;;6.15;2.10;;;;;;;14.85;76.78;101371.94;4917115;28;97960;-67
2021/08/24 01:27:39;;;;;;;3.95;2.00;;;;;;;14.84;77.18;101376.56;4892393;28;97918;-64
2021/08/24 01:31:05;;;;;;;3.95;1.83;;;;;;;14.82;76.76;101377.94;4868497;28;116375;-67
2021/08/24 01:34:09;;;;;;;6.63;2.10;;;;;;;14.81;76.64;101377.09;4912360;28;99114;-64
2021/08/24 01:37:03;;;;;;;4.45;1.98;;;;;;;14.79;77.01;101384.72;4918543;28;114941;-67
2021/08/24 01:39:41;;;;;;;3.80;1.90;;;;;;;14.80;76.96;101383.63;4903621;28;98262;-67
2021/08/24 01:42:16;;;;;;;3.10;1.50;;;;;;;14.81;77.21;101385.22;4884526;28;99015;-64
2021/08/24 01:44:53;;;;;;;4.60;1.67;;;;;;;14.80;76.91;101391.75;4914831;28;98253;-64
2021/08/24 01:47:46;;;;;;;4.35;1.55;;;;;;;14.81;76.60;101393.38;4921468;28;98163;-65
2021/08/24 01:50:32;;;;;;;5.90;1.80;;;;;;;14.79;77.01;101398.28;4900012;28;97911;-67
2021/08/24 01:53:31;;;;;;;2.80;1.60;;;;;;;14.77;76.80;101399.63;4900256;28;98333;-64
2021/08/24 01:56:18;;;;;;;3.50;1.73;;;;;;;14.77;76.48;101394.19;4919071;28;98524;-67
2021/08/24 01:58:51;;;;;;;3.85;1.55;;;;;;;14.77;76.40;101389.56;4904890;28;98136;-67
2021/08/24 02:01:21;;;;;;;4.65;1.38;;;;;;;14.78;76.75;101402.09;4904091;28;97928;-67
2021/08/24 02:03:50;;;;;;;4.10;1.58;;;;;;;14.79;76.47;101397.47;4913314;28;117727;-64
2021/08/24 02:06:37;;;;;;;3.45;1.40;;;;;;;14.78;76.38;101402.09;4916444;28;97865;-67
2021/08/24 02:09:08;;;;;;;5.00;1.42;;;;;;;14.76;76.41;101403.44;4892729;28;97869;-67
2021/08/24 02:11:34;;;;;;;4.03;1.60;;;;;;;14.76;76.11;101396.09;4868032;28;97923;-67
2021/08/24 02:14:06;;;;;;;2.67;1.30;;;;;;;14.71;76.32;101396.94;4884518;28;115966;-67
2021/08/24 02:16:32;;;;;;;3.08;1.40;;;;;;;14.68;76.17;101400.19;4868063;28;98144;-67
2021/08/24 02:19:05;;;;;;;4.28;1.38;;;;;;;14.65;75.99;101403.41;4882106;28;128295;-65
2021/08/24 02:21:43;;;;;;;3.92;1.30;;;;;;;14.63;76.10;101399.38;4868261;28;105244;-65
2021/08/24 02:24:12;;;;;;;3.45;1.30;;;;;;;14.60;76.48;101398.00;4910722;28;103095;-67
2021/08/24 02:26:39;;;;;;;4.30;1.13;;;;;;;14.60;76.17;101402.63;4882520;28;105113;-67
2021/08/24 02:29:05;;;;;;;3.92;0.95;;;;;;;14.58;76.37;101400.19;4893898;28;98198;-67
2021/08/24 02:31:44;;;;;;;3.72;1.23;;;;;;;14.56;76.01;101405.06;4888237;28;118012;-67
2021/08/24 02:34:43;;;;;;;2.95;1.27;;;;;;;14.55;75.79;101402.63;4900106;28;98948;-68
2021/08/24 02:37:29;;;;;;;3.20;1.30;;;;;;;14.50;75.75;101403.41;4901463;28;97934;-64
2021/08/24 02:40:34;;;;;;;4.65;1.30;;;;;;;14.46;75.96;101405.84;4912564;28;98123;-65
2021/08/24 02:43:20;;;;;;;3.40;1.23;;;;;;;14.46;75.90;101410.44;4899689;28;98061;-65
2021/08/24 02:46:11;;;;;;;4.60;1.20;;;;;;;14.45;75.83;101406.91;4899506;28;98065;-67
2021/08/24 02:48:38;;;;;;;4.45;1.13;;;;;;;14.47;75.82;101415.63;4907471;28;98104;-65
2021/08/24 02:51:04;;;;;;;3.97;1.25;;;;;;;14.47;76.01;101406.66;4898599;28;113674;-67
2021/08/24 02:53:32;;;;;;;3.03;1.17;;;;;;;14.47;76.16;101414.81;4883956;28;109567;-64
2021/08/24 02:55:58;;;;;;;2.67;1.13;;;;;;;14.55;75.87;101406.16;4920020;28;97959;-68
2021/08/24 02:58:24;;;;;;;3.00;1.08;;;;;;;14.57;75.30;101405.88;4921788;28;127511;-64
2021/08/24 03:00:50;;;;;;;2.97;1.08;;;;;;;14.58;75.21;101400.19;4922469;28;122919;-67
2021/08/24 03:03:16;;;;;;;3.38;1.05;;;;;;;14.57;75.36;101403.97;4923926;28;97944;-64
2021/08/24 03:05:44;;;;;;;2.67;1.00;;;;;;;14.58;74.94;101407.50;4903504;28;98507;-64
2021/08/24 03:08:10;;;;;;;6.50;1.30;;;;;;;14.60;75.05;101418.91;4904096;28;106161;-67
2021/08/24 03:10:39;;;;;;;4.97;1.30;;;;;;;14.61;75.13;101417.81;4904474;28;111802;-67
2021/08/24 03:13:27;;;;;;;2.22;1.27;;;;;;;14.60;75.15;101417.00;4905126;28;104697;-64
2021/08/24 03:15:58;;;;;;;3.50;1.30;;;;;;;14.62;75.07;101417.56;4901769;28;107355;-67
2021/08/24 03:18:32;;;;;;;2.92;1.00;;;;;;;14.61;74.85;101423.25;4903609;28;98441;-67
2021/08/24 03:21:02;;;;;;;2.95;1.25;;;;;;;14.63;75.17;101423.78;4901371;28;107714;-67
2021/08/24 03:23:28;;;;;;;2.63;0.85;;;;;;;14.66;75.57;101425.97;4909350;28;103372;-64
2021/08/24 03:25:54;;;;;;;3.45;1.08;;;;;;;14.67;74.90;101419.44;4922063;28;111243;-64
2021/08/24 03:28:21;;;;;;;5.07;1.30;;;;;;;14.69;75.06;101428.94;4901892;28;98425;-64
2021/08/24 03:30:48;;;;;;;2.63;0.95;;;;;;;14.69;74.68;101430.84;4913922;28;98554;-64
2021/08/24 03:33:14;;;;;;;2.97;1.08;;;;;;;14.67;74.79;101424.88;4913383;28;98119;-64
2021/08/24 03:35:40;;;;;;;3.55;1.13;;;;;;;14.66;74.80;101428.69;4902692;28;98363;-64
2021/08/24 03:38:06;;;;;;;4.97;1.30;;;;;;;14.64;74.51;101423.50;4902960;28;98344;-68
2021/08/24 03:40:32;;;;;;;3.78;1.30;;;;;;;14.63;74.69;101431.94;4902581;28;126733;-67
2021/08/24 03:42:58;;;;;;;3.38;1.02;;;;;;;14.63;74.58;101429.22;4905318;28;117618;-67
2021/08/24 03:45:24;;;;;;;3.92;0.82;;;;;;;14.61;74.33;101431.38;4900792;28;127298;-65
2021/08/24 03:47:51;;;;;;;3.15;0.90;;;;;;;14.58;73.95;101426.47;4902321;28;127676;-68
2021/08/24 03:50:17;;;;;;;2.63;0.70;;;;;;;14.58;74.48;101432.75;4902014;28;100688;-67
2021/08/24 03:52:43;;;;;;;2.30;1.00;;;;;;;14.56;74.26;101426.78;4903815;28;97824;-65
2021/08/24 03:55:10;;;;;;;2.58;1.00;;;;;;;14.55;74.29;101435.19;4908002;28;128076;-65
2021/08/24 03:57:36;;;;;;;4.43;1.10;;;;;;;14.52;74.45;101441.16;4903215;28;99139;-68
2021/08/24 04:00:03;;;;;;;5.07;1.15;;;;;;;14.48;74.50;101440.84;4901748;28;125682;-65
2021/08/24 04:02:29;;;;;;;3.67;1.00;;;;;;;14.48;74.62;101438.13;4903434;28;98873;-68
2021/08/24 04:04:56;;;;;;;5.25;1.15;;;;;;;14.46;74.21;101448.41;4910697;28;127670;-68
2021/08/24 04:07:22;;;;;;;4.35;0.88;;;;;;;14.45;74.42;101453.03;4901900;28;98195;-67
2021/08/24 04:09:51;;;;;;;4.63;0.90;;;;;;;14.44;74.40;101450.59;4913777;28;98281;-68
2021/08/24 04:12:17;;;;;;;2.85;0.88;;;;;;;14.43;74.56;101452.50;4923346;28;104083;-68
2021/08/24 04:14:43;;;;;;;3.83;0.80;;;;;;;14.43;74.47;101449.78;4913836;28;127749;-67
2021/08/24 04:17:09;;;;;;;3.75;0.90;;;;;;;14.44;74.81;101462.25;4901908;28;129304;-68
2021/08/24 04:19:35;;;;;;;4.45;0.82;;;;;;;14.44;74.38;101454.13;4903436;28;98044;-65
2021/08/24 04:22:04;;;;;;;3.90;1.00;;;;;;;14.45;74.24;101463.88;4902253;28;117450;-68
2021/08/24 04:24:30;;;;;;;3.95;1.10;;;;;;;14.46;74.77;101476.38;4891501;28;117036;-68
2021/08/24 04:26:56;;;;;;;2.90;0.98;;;;;;;14.47;74.61;101478.00;4921330;28;127686;-65
2021/08/24 04:29:22;;;;;;;3.42;1.05;;;;;;;14.47;73.75;101483.44;4920848;28;127518;-68
2021/08/24 04:31:48;;;;;;;4.40;1.25;;;;;;;14.47;73.77;101477.19;4920592;28;117924;-68
2021/08/24 04:34:14;;;;;;;3.90;1.02;;;;;;;14.46;73.92;101476.38;4914763;28;127082;-68
2021/08/24 04:36:40;;;;;;;2.47;0.85;;;;;;;14.45;73.85;101477.44;4914220;28;98077;-65
2021/08/24 04:39:06;;;;;;;3.90;1.15;;;;;;;14.43;73.98;101485.06;4922228;28;115709;-69
2021/08/24 04:41:32;;;;;;;3.92;0.82;;;;;;;14.41;73.92;101486.38;4922025;28;97904;-65
2021/08/24 04:43:59;;;;;;;2.95;0.93;;;;;;;14.38;73.88;101493.19;4900546;28;98496;-68
2021/08/24 04:46:25;;;;;;;3.22;1.27;;;;;;;14.37;73.48;101496.97;4899544;28;121466;-65
2021/08/24 04:48:52;;;;;;;3.35;1.40;;;;;;;14.36;74.45;101487.19;4899067;28;127001;-65
2021/08/24 04:51:18;;;;;;;3.22;1.05;;;;;;;14.37;74.11;101494.25;4899830;28;100194;-68
2021/08/24 04:53:44;;;;;;;3.63;1.00;;;;;;;14.40;74.40;101491.00;4874264;28;128512;-65
2021/08/24 04:56:10;;;;;;;3.25;1.10;;;;;;;14.42;73.93;101491.56;4898869;28;128423;-65
2021/08/24 04:58:36;;;;;;;3.78;1.20;;;;;;;14.44;73.64;101494.00;4897254;28;103602;-65
2021/08/24 05:01:02;;;;;;;4.78;1.10;;;;;;;14.46;73.85;101491.81;4898870;28;117820;-68
2021/08/24 05:03:28;;;;;;;3.30;1.23;;;;;;;14.46;74.14;101498.09;4903140;28;128089;-65
2021/08/24 05:05:54;;;;;;;3.45;1.30;;;;;;;14.47;73.85;101499.72;4902323;28;98245;-65
2021/08/24 05:08:21;;;;;;;4.45;1.02;;;;;;;14.52;74.06;101507.06;4896318;28;127381;-68
2021/08/24 05:10:47;;;;;;;4.07;1.23;;;;;;;14.57;73.65;101506.25;4900125;28;98049;-68
2021/08/24 05:13:14;;;;;;;2.85;1.20;;;;;;;14.57;73.24;101508.97;4897466;28;128679;-68
2021/08/24 05:15:40;;;;;;;3.92;1.35;;;;;;;14.56;73.38;101510.06;4883155;28;112471;-68
2021/08/24 05:18:06;;;;;;;3.03;1.15;;;;;;;14.57;73.38;101520.63;4899206;28;102059;-68
2021/08/24 05:20:32;;;;;;;3.58;1.20;;;;;;;14.60;73.35;101511.97;4898568;28;117476;-68
2021/08/24 05:22:58;;;;;;;4.25;1.27;;;;;;;14.63;73.26;101516.03;4898437;28;98512;-65
2021/08/24 05:25:24;;;;;;;4.13;1.40;;;;;;;14.65;73.40;101522.00;4898731;28;116097;-65
2021/08/24 05:27:50;;;;;;;3.80;1.30;;;;;;;14.66;73.54;101524.47;4880988;28;116383;-68
2021/08/24 05:30:21;;;;;;;3.83;1.52;;;;;;;14.70;73.64;101527.47;4899966;28;97939;-65
2021/08/24 05:32:48;;;;;;;3.45;1.30;;;;;;;14.75;73.52;101532.06;4897377;28;98193;-68
2021/08/24 05:35:14;;;;;;;2.55;1.40;;;;;;;14.78;74.04;101526.94;4894301;28;98278;-65
2021/08/24 05:37:40;;;;;;;4.68;1.67;;;;;;;14.81;73.38;101533.69;4903672;28;98391;-68
2021/08/24 05:40:08;;;;;;;3.90;1.42;;;;;;;14.82;73.26;101532.63;4897658;28;97894;-64
2021/08/24 05:42:34;;;;;;;4.25;1.60;;;;;;;14.84;73.86;101538.59;4901231;28;108228;-65
2021/08/24 05:45:01;;;;;;;3.45;1.65;;;;;;;14.89;73.35;101538.59;4901367;28;127152;-68
2021/08/24 05:47:29;;;;;;;5.13;1.95;;;;;;;14.93;73.29;101542.38;4901407;28;97916;-68
2021/08/24 05:49:55;;;;;;;3.65;1.83;;;;;;;14.97;72.82;101551.63;4901113;28;116871;-65
2021/08/24 05:52:21;;;;;;;4.25;1.90;;;;;;;14.95;72.83;101551.09;4902192;28;127291;-68
2021/08/24 05:54:49;;;;;;;4.32;2.15;;;;;;;14.92;73.02;101548.91;4901521;28;98821;-65
2021/08/24 05:57:17;;;;;;;3.25;1.92;;;;;;;14.90;72.88;101551.09;4901504;28;98131;-64
2021/08/24 05:59:43;;;;;;;2.53;1.80;;;;;;;14.91;72.95;101553.53;4916849;28;97896;-68
2021/08/24 06:02:09;;;;;;;5.47;2.08;;;;;;;14.94;73.19;101554.91;4913402;28;98384;-65
2021/08/24 06:04:35;;;;;;;3.55;2.20;;;;;;;14.94;72.81;101554.91;4917251;28;99330;-68
2021/08/24 06:07:02;;;;;;;4.88;2.40;;;;;;;14.99;72.83;101560.31;4908622;28;127801;-68
2021/08/24 06:09:28;;;;;;;7.03;2.70;;;;;;;15.02;72.78;101558.97;4898887;28;101462;-65
2021/08/24 06:11:54;;;;;;;5.50;2.20;;;;;;;15.10;72.15;101561.97;4915240;28;98017;-68
2021/08/24 06:14:22;;;;;;;5.35;3.28;;;;;;;15.18;72.42;101560.59;4903421;28;98455;-64
2021/08/24 06:16:54;;;;;;;3.78;2.92;;;;;;;15.23;72.19;101560.59;4901227;28;98634;-68
2021/08/24 06:19:21;;;;;;;3.80;2.80;;;;;;;15.30;71.88;101565.78;4901531;28;97818;-65
2021/08/24 06:21:47;;;;;;;4.65;2.97;;;;;;;15.34;72.08;101562.22;4903874;28;120002;-65
2021/08/24 06:24:13;;;;;;;4.25;2.97;;;;;;;15.39;71.53;101555.97;4917654;28;126652;-65
2021/08/24 06:26:41;;;;;;;6.22;3.72;;;;;;;15.39;71.49;101562.22;4908481;28;98316;-65
2021/08/24 06:29:08;;;;;;;4.85;3.33;;;;;;;15.42;71.80;101569.03;4906202;28;98092;-65
2021/08/24 06:31:38;;;;;;;4.53;3.70;;;;;;;15.40;71.64;101572.00;4913033;28;113471;-68
2021/08/24 06:34:05;;;;;;;6.05;3.80;;;;;;;15.44;71.56;101577.69;4905198;28;98246;-65
2021/08/24 06:36:32;;;;;;;5.90;4.50;;;;;;;15.39;71.54;101577.72;4854063;28;98870;-65
2021/08/24 06:38:58;;;;;;;6.47;4.15;;;;;;;15.35;71.80;101577.44;4906311;28;98933;-65
2021/08/24 06:41:24;;;;;;;6.13;4.68;;;;;;;15.32;71.35;101579.88;4902981;28;127102;-65
2021/08/24 06:43:50;;;;;;;5.45;4.30;;;;;;;15.31;71.41;101572.81;4905740;28;98647;-68
2021/08/24 06:46:16;;;;;;;7.28;4.75;;;;;;;15.33;71.54;101578.81;4923243;28;117306;-68
2021/08/24 06:48:42;;;;;;;6.18;4.50;;;;;;;15.31;71.70;101576.34;4905035;28;118454;-68
2021/08/24 06:51:09;;;;;;;5.88;4.72;;;;;;;15.34;71.86;101578.53;4920248;28;126866;-68
2021/08/24 06:53:36;;;;;;;6.50;4.40;;;;;;;15.36;71.62;101576.34;4903500;28;98451;-69
2021/08/24 06:56:03;;;;;;;4.57;4.18;;;;;;;15.39;71.67;101575.78;4904262;28;110596;-64
2021/08/24 06:58:29;;;;;;;5.70;4.70;;;;;;;15.43;71.26;101579.59;4905172;28;97803;-65
2021/08/24 07:00:55;;;;;;;4.95;4.45;;;;;;;15.47;70.70;101586.13;4905011;28;98482;-68
2021/08/24 07:03:21;;;;;;;5.60;4.60;;;;;;;15.57;71.25;101581.78;4914635;28;98760;-68
2021/08/24 07:05:49;;;;;;;5.05;4.20;;;;;;;15.69;70.73;101591.28;4920085;28;127722;-65
2021/08/24 07:08:16;;;;;;;5.05;4.55;;;;;;;15.74;70.71;101593.19;4921987;28;97989;-68
2021/08/24 07:10:43;;;;;;;6.25;4.18;;;;;;;15.77;70.62;101598.09;4922453;28;98589;-68
2021/08/24 07:13:09;;;;;;;7.30;4.55;;;;;;;15.76;70.58;101591.03;4909548;28;98888;-68
2021/08/24 07:15:36;;;;;;;5.93;4.90;;;;;;;15.76;70.32;101588.31;4900633;28;126955;-65
2021/08/24 07:18:02;;;;;;;5.22;4.72;;;;;;;15.81;70.84;101591.00;4892510;28;98102;-64
2021/08/24 07:20:28;;;;;;;7.88;4.90;;;;;;;15.83;70.08;101588.81;4913393;28;125905;-64
2021/08/24 07:22:57;;;;;;;6.55;4.78;;;;;;;15.87;70.19;101586.34;4922471;28;97751;-65
2021/08/24 07:25:25;;;;;;;6.68;4.78;;;;;;;15.91;70.28;101587.44;4919952;28;98229;-64
2021/08/24 07:27:51;;;;;;;7.05;5.05;;;;;;;15.97;70.37;101590.97;4923136;28;97893;-65
2021/08/24 07:30:18;;;;;;;6.55;4.97;;;;;;;16.02;69.66;101590.94;4920992;28;103049;-68
2021/08/24 07:32:44;;;;;;;5.53;4.80;;;;;;;16.04;69.55;101591.50;4913123;28;127990;-68
2021/08/24 07:35:10;;;;;;;6.45;5.07;;;;;;;16.03;69.18;101587.94;4901751;28;98197;-64
2021/08/24 07:37:36;;;;;;;5.70;4.82;;;;;;;16.11;68.95;101592.84;4905442;28;98018;-64
2021/08/24 07:40:04;;;;;;;5.97;5.05;;;;;;;16.26;68.62;101589.22;4919352;28;102062;-65
2021/08/24 07:42:30;;;;;;;6.15;4.95;;;;;;;16.30;68.28;101598.44;4912522;28;114371;-68
2021/08/24 07:44:56;;;;;;;5.30;4.47;;;;;;;16.36;68.11;101591.91;4903044;28;126572;-64
2021/08/24 07:47:22;;;;;;;7.53;4.95;;;;;;;16.40;68.35;101603.88;4903302;28;118012;-64
2021/08/24 07:49:50;;;;;;;5.72;4.78;;;;;;;16.51;68.24;101604.63;4901934;28;128091;-64
2021/08/24 07:52:16;;;;;;;6.55;4.50;;;;;;;16.54;67.46;101604.06;4907567;28;99188;-68
2021/08/24 07:54:43;;;;;;;5.32;4.82;;;;;;;16.57;68.07;101598.06;4921692;28;128329;-64
2021/08/24 07:57:09;;;;;;;4.85;4.22;;;;;;;16.68;67.93;101601.53;4922297;28;116290;-68
2021/08/24 07:59:35;;;;;;;6.28;4.38;;;;;;;16.67;67.92;101606.19;4900106;28;126617;-68
2021/08/24 08:02:01;;;;;;;6.03;4.50;;;;;;;16.72;67.44;101607.25;4902388;28;98091;-65
2021/08/24 08:04:27;;;;;;;5.28;4.28;;;;;;;16.78;67.31;101611.59;4917709;28;112323;-69
2021/08/24 08:06:53;;;;;;;7.03;4.75;;;;;;;16.83;67.64;101609.66;4920744;28;98079;-64
2021/08/24 08:09:20;;;;;;;5.28;4.78;;;;;;;16.91;67.08;101608.25;4919513;28;111836;-65
2021/08/24 08:11:48;;;;;;;6.35;5.60;;;;;;;16.99;66.78;101612.28;4921622;28;99512;-64
2021/08/24 08:14:14;;;;;;;6.75;5.90;;;;;;;17.06;66.74;101619.03;4903867;28;98255;-68
2021/08/24 08:16:40;;;;;;;5.93;5.32;;;;;;;17.03;66.53;101626.97;4890786;28;97830;-65
2021/08/24 08:19:07;;;;;;;6.20;5.60;;;;;;;17.07;66.78;101630.75;4904246;28;98267;-68
2021/08/24 08:21:33;;;;;;;6.18;5.50;;;;;;;17.06;66.56;101631.84;4885333;28;98555;-69
2021/08/24 08:24:01;;;;;;;5.32;4.82;;;;;;;17.09;66.53;101623.91;4886747;28;99191;-69
2021/08/24 08:26:28;;;;;;;5.63;4.72;;;;;;;17.16;65.96;101631.78;4922682;28;97887;-64
2021/08/24 08:28:55;;;;;;;6.68;4.90;;;;;;;17.17;66.04;101627.94;4909749;28;117635;-68
2021/08/24 08:31:21;;;;;;;5.00;4.60;;;;;;;17.25;65.77;101629.25;4901929;28;98662;-64
2021/08/24 08:33:47;;;;;;;6.72;4.53;;;;;;;17.20;66.11;101635.56;4916825;28;98184;-69
2021/08/24 08:36:14;;;;;;;4.95;4.45;;;;;;;17.21;66.17;101636.34;4922068;28;97888;-64
2021/08/24 08:38:40;;;;;;;5.40;4.90;;;;;;;17.25;65.84;101643.72;4920711;28;99576;-64
2021/08/24 08:41:28;;;;;;;5.70;5.00;;;;;;;17.34;65.23;101642.00;4918650;28;127304;-64
2021/08/24 08:44:00;;;;;;;5.57;5.07;;;;;;;17.31;65.34;101649.91;4904032;28;99319;-69
2021/08/24 08:46:52;;;;;;;5.93;5.20;;;;;;;17.21;65.76;101648.06;4920859;28;98198;-68
2021/08/24 08:49:29;;;;;;;5.47;4.80;;;;;;;17.22;65.81;101643.47;4903780;28;117798;-68
2021/08/24 08:52:07;;;;;;;5.75;4.80;;;;;;;17.16;65.68;101646.19;4919290;28;98734;-68
2021/08/24 08:54:56;;;;;;;6.82;4.85;;;;;;;17.17;65.65;101649.72;4901103;28;98593;-69
2021/08/24 08:57:47;;;;;;;5.07;4.68;;;;;;;17.28;65.64;101650.47;4872477;28;97822;-66
2021/08/24 09:00:21;;;;;;;6.60;5.45;;;;;;;17.34;65.04;101652.09;4870340;28;111369;-68
2021/08/24 09:02:52;;;;;;;5.85;5.25;;;;;;;17.49;65.05;101654.69;4905742;28;98236;-64
2021/08/24 09:05:22;;;;;;;5.43;4.95;;;;;;;17.60;64.72;101649.94;4921362;28;97854;-69
2021/08/24 09:07:54;;;;;;;4.90;4.40;;;;;;;17.62;64.49;101659.47;4903602;28;98125;-65
2021/08/24 09:10:39;;;;;;;5.05;4.65;;;;;;;17.52;64.72;101667.72;4920204;28;98346;-69
2021/08/24 09:13:31;;;;;;;6.18;4.90;;;;;;;17.42;65.04;101667.81;4896209;28;98801;-69
2021/08/24 09:16:32;;;;;;;6.28;4.63;;;;;;;17.41;65.05;101677.91;4902369;28;98062;-64
2021/08/24 09:19:10;;;;;;;5.63;4.57;;;;;;;17.57;65.02;101677.81;4902339;28;97826;-64
2021/08/24 09:21:39;;;;;;;5.28;4.25;;;;;;;17.75;64.20;101671.66;4868855;28;98420;-69
2021/08/24 09:24:28;;;;;;;4.75;4.25;;;;;;;17.75;64.75;101674.38;4916121;28;121064;-69
2021/08/24 09:27:09;;;;;;;4.85;4.32;;;;;;;17.94;64.02;101677.22;4919282;28;98584;-69
2021/08/24 09:29:45;;;;;;;5.45;3.97;;;;;;;18.37;63.26;101672.66;4920090;28;97748;-64
2021/08/24 09:32:12;;;;;;;4.90;4.05;;;;;;;18.64;62.76;101674.00;4918380;28;98391;-64
2021/08/24 09:34:43;;;;;;;5.55;3.40;;;;;;;18.78;61.97;101677.63;4883498;28;109935;-69
2021/08/24 09:37:09;;;;;;;3.78;3.10;;;;;;;18.94;61.55;101677.44;4902765;28;98603;-64
2021/08/24 09:40:03;;;;;;;4.45;2.80;;;;;;;19.20;61.45;101672.44;4915357;28;98212;-64
2021/08/24 09:42:31;;;;;;;7.10;3.13;;;;;;;21.01;56.84;101664.97;4915600;28;99105;-65
2021/08/24 09:45:23;;;;;;;3.53;2.53;;;;;;;20.33;58.50;101675.69;4910601;28;98058;-64
2021/08/24 09:48:05;;;;;;;3.10;2.70;;;;;;;20.69;58.46;101671.44;4919563;28;98159;-64
2021/08/24 09:50:37;;;;;;;5.85;2.67;;;;;;;20.46;58.60;101670.50;4902861;28;97967;-69
2021/08/24 09:53:05;;;;;;;3.88;2.25;;;;;;;20.37;57.83;101672.34;4919709;28;98208;-69
2021/08/24 09:55:33;;;;;;;2.42;2.08;;;;;;;20.38;58.04;101676.69;4918757;28;97928;-69
2021/08/24 09:58:05;;;;;;;4.55;2.15;;;;;;;20.43;58.43;101677.41;4903185;28;116313;-69
2021/08/24 10:00:56;;;;;;;3.65;2.13;;;;;;;20.48;58.71;101674.56;4919411;28;97772;-64
2021/08/24 10:03:38;;;;;;;4.53;2.15;;;;;;;20.84;58.14;101671.91;4918630;28;115563;-64
2021/08/24 10:06:27;;;;;;;;;;;;;;;21.52;57.13;101672.00;4906388;28;98242;-69
2021/08/24 10:08:55;;;;;;;3.60;1.85;;;;;;;20.95;57.12;101668.97;4905516;28;98230;-69
2021/08/24 10:11:31;;;;;;;2.95;1.50;;;;;;;21.17;56.59;101673.66;4905023;28;97929;-64
2021/08/24 10:14:26;;;;;;;3.33;1.65;;;;;;;22.25;54.65;101673.41;4904978;28;98669;-70
2021/08/24 10:16:56;;;;;;;6.30;1.40;;;;;;;23.26;51.44;101676.19;4904164;28;128107;-64
2021/08/24 10:19:29;;;;;;;2.92;1.30;;;;;;;22.52;54.05;101682.56;4887138;28;98128;-64
2021/08/24 10:22:33;;;;;;;5.15;1.33;;;;;;;23.73;51.22;101679.88;4920807;28;98239;-65
2021/08/24 10:25:08;;;;;;;4.53;1.38;;;;;;;23.56;51.13;101682.63;4914794;28;103603;-64
2021/08/24 10:27:43;;;;;;;3.13;1.27;;;;;;;24.81;48.93;101674.06;4901970;28;116587;-65
2021/08/24 10:30:17;;;;;;;3.28;1.25;;;;;;;24.23;50.90;101676.47;4887988;28;98362;-70
2021/08/24 10:32:54;;;;;;;3.65;1.10;;;;;;;25.51;47.99;101670.78;4887416;28;106179;-70
2021/08/24 10:35:26;;;;;;;3.53;1.30;;;;;;;27.20;44.68;101670.38;4896681;28;111506;-70
2021/08/24 10:37:52;;;;;;;3.05;1.15;;;;;;;28.11;42.34;101686.25;4889709;28;113200;-70
2021/08/24 10:40:28;;;;;;;3.58;1.30;;;;;;;29.66;41.50;101674.63;4902726;28;98562;-65
2021/08/24 10:43:04;;;;;;;4.07;1.38;;;;;;;30.25;40.80;101664.94;4905651;28;97962;-72
2021/08/24 10:45:33;;;;;;;3.78;1.50;;;;;;;30.66;38.36;101681.84;4915146;28;98694;-72
2021/08/24 10:48:04;;;;;;;4.35;1.52;;;;;;;31.44;36.16;101665.34;4924293;28;98416;-65
2021/08/24 10:50:49;;;;;;;3.25;1.38;;;;;;;31.25;36.08;101675.47;4921233;28;119386;-72
2021/08/24 10:53:39;;;;;;;2.10;1.40;;;;;;;30.32;38.99;101662.25;4921225;28;103590;-65
2021/08/24 10:56:10;;;;;;;3.33;1.50;;;;;;;29.11;39.64;101658.06;4908486;28;98193;-71
2021/08/24 10:59:01;;;;;;;3.57;1.40;;;;;;;30.03;37.14;101658.22;4903237;28;98613;-65
2021/08/24 11:01:45;;;;;;;1.90;1.10;;;;;;;29.82;38.47;101651.09;4879950;28;98036;-66
2021/08/24 11:04:23;;;;;;;2.88;1.30;;;;;;;30.74;37.14;101655.75;4921721;28;104861;-71
2021/08/24 11:07:09;;;;;;;3.88;1.10;;;;;;;29.53;38.72;101654.53;4916857;28;98994;-72
2021/08/24 11:09:55;;;;;;;2.58;1.17;;;;;;;30.37;36.90;101653.59;4907222;28;121492;-65
2021/08/24 11:12:31;;;;;;;3.08;1.38;;;;;;;30.97;34.81;101659.25;4921920;28;99193;-65
2021/08/24 11:15:34;;;;;;;1.67;1.02;;;;;;;31.48;35.75;101653.09;4902901;28;97886;-65
2021/08/24 11:18:14;;;;;;;2.58;1.15;;;;;;;31.77;35.03;101650.56;4901943;28;98564;-72
2021/08/24 11:21:07;;;;;;;3.07;1.27;;;;;;;31.78;33.94;101655.75;4902444;28;99270;-65
2021/08/24 11:24:06;;;;;;;1.90;1.10;;;;;;;30.25;36.65;101649.03;4893230;28;112555;-71
2021/08/24 11:27:05;;;;;;;1.40;0.90;;;;;;;29.38;37.68;101645.13;4907622;28;97927;-71
2021/08/24 11:29:53;;;;;;;4.03;1.05;;;;;;;30.49;35.02;101647.00;4920176;28;121172;-72
2021/08/24 11:32:29;;;;;;;2.60;0.88;;;;;;;31.05;34.66;101644.22;4920694;28;98409;-65
2021/08/24 11:35:42;;;;;;;2.47;1.20;;;;;;;30.65;35.47;101638.50;4900206;28;98064;-72
2021/08/24 11:38:15;;;;;;;4.18;1.38;;;;;;;30.10;35.14;101636.06;4903179;28;97963;-72
2021/08/24 11:41:08;;;;;;;1.48;0.90;;;;;;;30.18;35.49;101634.22;4885927;28;116984;-71
2021/08/24 11:43:47;;;;;;;2.22;1.00;;;;;;;30.40;34.49;101638.94;4894855;28;115128;-72
2021/08/24 11:46:39;;;;;;;2.40;1.10;;;;;;;30.12;36.08;101630.94;4906069;28;98027;-71
2021/08/24 11:49:15;;;;;;;2.88;1.00;;;;;;;30.89;34.28;101635.28;4873151;28;97811;-72